sensor_id;sensor_type;location;lat;lon;timestamp;pressure;altitude;pressure_sealevel;temperature;humidity
33454;BME280;39400;49.744;7.012;2022-11-15T00:01:35;95526.03;;;9.17;100.00
33454;BME280;39400;49.744;7.012;2022-11-15T00:04:38;95526.00;;;9.24;100.00
33454;BME280;39400;49.744;7.012;2022-11-15T00:07:41;95511.13;;;9.25;100.00
33454;BME280;39400;49.744;7.012;2022-11-15T00:11:03;95507.97;;;9.30;100.00
33454;BME280;39400;49.744;7.012;2022-11-15T00:14:06;95513.47;;;9.30;100.00
33454;BME280;39400;49.744;7.012;2022-11-15T00:17:09;95508.00;;;9.23;100.00
33454;BME280;39400;49.744;7.012;2022-11-15T00:20:11;95517.41;;;9.25;100.00
33454;BME280;39400;49.744;7.012;2022-11-15T00:23:14;95502.91;;;9.25;100.00
33454;BME280;39400;49.744;7.012;2022-11-15T00:26:17;95505.66;;;9.25;100.00
33454;BME280;39400;49.744;7.012;2022-11-15T00:29:20;95493.09;;;9.24;100.00
33454;BME280;39400;49.744;7.012;2022-11-15T00:32:23;95511.91;;;9.29;100.00
33454;BME280;39400;49.744;7.012;2022-11-15T00:35:26;95510.75;;;9.23;100.00
33454;BME280;39400;49.744;7.012;2022-11-15T00:38:33;95500.16;;;9.25;100.00
33454;BME280;39400;49.744;7.012;2022-11-15T00:41:36;95490.75;;;9.26;100.00
33454;BME280;39400;49.744;7.012;2022-11-15T00:44:39;95506.41;;;9.29;100.00
33454;BME280;39400;49.744;7.012;2022-11-15T00:47:45;95498.97;;;9.26;100.00
33454;BME280;39400;49.744;7.012;2022-11-15T00:50:49;95493.88;;;9.21;100.00
33454;BME280;39400;49.744;7.012;2022-11-15T00:53:51;95501.75;;;9.15;100.00
33454;BME280;39400;49.744;7.012;2022-11-15T00:56:54;95501.75;;;9.19;100.00
33454;BME280;39400;49.744;7.012;2022-11-15T00:59:57;95495.06;;;9.20;100.00
33454;BME280;39400;49.744;7.012;2022-11-15T01:03:01;95487.63;;;9.17;100.00
33454;BME280;39400;49.744;7.012;2022-11-15T01:06:04;95488.00;;;9.26;100.00
33454;BME280;39400;49.744;7.012;2022-11-15T01:09:07;95485.28;;;9.19;100.00
33454;BME280;39400;49.744;7.012;2022-11-15T01:12:09;95486.84;;;9.20;100.00
33454;BME280;39400;49.744;7.012;2022-11-15T01:15:12;95485.28;;;9.19;100.00
33454;BME280;39400;49.744;7.012;2022-11-15T01:18:15;95484.50;;;9.18;100.00
33454;BME280;39400;49.744;7.012;2022-11-15T01:21:19;95477.44;;;9.14;100.00
33454;BME280;39400;49.744;7.012;2022-11-15T01:24:22;95479.03;;;9.11;100.00
33454;BME280;39400;49.744;7.012;2022-11-15T01:27:24;95484.13;;;9.05;100.00
33454;BME280;39400;49.744;7.012;2022-11-15T01:30:27;95482.56;;;9.04;100.00
33454;BME280;39400;49.744;7.012;2022-11-15T01:33:30;95480.63;;;9.05;100.00
33454;BME280;39400;49.744;7.012;2022-11-15T01:36:33;95474.72;;;9.07;100.00
33454;BME280;39400;49.744;7.012;2022-11-15T01:39:36;95488.84;;;9.09;100.00
33454;BME280;39400;49.744;7.012;2022-11-15T01:42:39;95477.47;;;9.07;100.00
33454;BME280;39400;49.744;7.012;2022-11-15T01:45:42;95489.19;;;9.11;100.00
33454;BME280;39400;49.744;7.012;2022-11-15T01:48:44;95490.78;;;9.12;100.00
33454;BME280;39400;49.744;7.012;2022-11-15T01:51:47;95486.09;;;9.09;100.00
33454;BME280;39400;49.744;7.012;2022-11-15T01:54:55;95476.31;;;9.08;100.00
33454;BME280;39400;49.744;7.012;2022-11-15T01:58:02;95466.50;;;9.03;100.00
33454;BME280;39400;49.744;7.012;2022-11-15T02:01:07;95471.59;;;9.08;100.00
33454;BME280;39400;49.744;7.012;2022-11-15T02:04:15;95466.50;;;9.03;100.00
33454;BME280;39400;49.744;7.012;2022-11-15T02:07:20;95481.41;;;9.02;100.00
33454;BME280;39400;49.744;7.012;2022-11-15T02:10:24;95486.09;;;9.01;100.00
33454;BME280;39400;49.744;7.012;2022-11-15T02:13:28;95471.59;;;9.08;100.00
33454;BME280;39400;49.744;7.012;2022-11-15T02:20:25;95475.16;;;8.94;100.00
33454;BME280;39400;49.744;7.012;2022-11-15T02:27:16;95479.03;;;9.00;100.00
33454;BME280;39400;49.744;7.012;2022-11-15T02:30:34;95464.56;;;8.96;100.00
33454;BME280;39400;49.744;7.012;2022-11-15T02:33:52;95458.69;;;8.94;100.00
33454;BME280;39400;49.744;7.012;2022-11-15T02:37:17;95461.81;;;8.93;100.00
33454;BME280;39400;49.744;7.012;2022-11-15T02:43:37;95458.34;;;8.74;100.00
33454;BME280;39400;49.744;7.012;2022-11-15T02:49:54;95453.25;;;8.66;100.00
33454;BME280;39400;49.744;7.012;2022-11-15T02:52:59;95446.19;;;8.65;100.00
33454;BME280;39400;49.744;7.012;2022-11-15T02:56:02;95454.84;;;8.63;100.00
33454;BME280;39400;49.744;7.012;2022-11-15T03:09:16;95435.63;;;8.74;100.00
33454;BME280;39400;49.744;7.012;2022-11-15T03:12:30;95428.97;;;8.75;100.00
33454;BME280;39400;49.744;7.012;2022-11-15T03:15:38;95432.09;;;8.77;100.00
33454;BME280;39400;49.744;7.012;2022-11-15T03:18:48;95436.00;;;8.76;100.00
33454;BME280;39400;49.744;7.012;2022-11-15T03:21:53;95426.22;;;8.75;100.00
33454;BME280;39400;49.744;7.012;2022-11-15T03:25:00;95435.22;;;8.72;100.00
33454;BME280;39400;49.744;7.012;2022-11-15T03:28:05;95434.44;;;8.75;100.00
33454;BME280;39400;49.744;7.012;2022-11-15T03:31:11;95436.41;;;8.74;100.00
33454;BME280;39400;49.744;7.012;2022-11-15T03:34:21;95435.22;;;8.75;100.00
33454;BME280;39400;49.744;7.012;2022-11-15T03:37:34;95424.25;;;8.75;100.00
33454;BME280;39400;49.744;7.012;2022-11-15T03:40:41;95420.38;;;8.73;100.00
33454;BME280;39400;49.744;7.012;2022-11-15T03:43:53;95424.28;;;8.68;100.00
33454;BME280;39400;49.744;7.012;2022-11-15T03:47:21;95421.94;;;8.67;100.00
33454;BME280;39400;49.744;7.012;2022-11-15T03:50:26;95414.88;;;8.66;100.00
33454;BME280;39400;49.744;7.012;2022-11-15T03:53:29;95411.34;;;8.65;100.00
33454;BME280;39400;49.744;7.012;2022-11-15T03:56:32;95399.63;;;8.65;100.00
33454;BME280;39400;49.744;7.012;2022-11-15T03:59:35;95401.56;;;8.68;100.00
33454;BME280;39400;49.744;7.012;2022-11-15T04:02:38;95400.41;;;8.62;100.00
33454;BME280;39400;49.744;7.012;2022-11-15T04:05:41;95407.06;;;8.61;100.00
33454;BME280;39400;49.744;7.012;2022-11-15T04:08:44;95407.06;;;8.57;100.00
33454;BME280;39400;49.744;7.012;2022-11-15T04:11:46;95417.25;;;8.56;100.00
33454;BME280;39400;49.744;7.012;2022-11-15T04:14:49;95396.09;;;8.61;100.00
33454;BME280;39400;49.744;7.012;2022-11-15T04:17:54;95407.06;;;8.57;100.00
33454;BME280;39400;49.744;7.012;2022-11-15T04:20:57;95417.63;;;8.58;100.00
33454;BME280;39400;49.744;7.012;2022-11-15T04:24:00;95411.78;;;8.53;100.00
33454;BME280;39400;49.744;7.012;2022-11-15T04:27:03;95397.28;;;8.60;100.00
33454;BME280;39400;49.744;7.012;2022-11-15T04:30:06;95403.53;;;8.64;100.00
33454;BME280;39400;49.744;7.012;2022-11-15T04:33:09;95383.59;;;8.60;100.00
33454;BME280;39400;49.744;7.012;2022-11-15T04:36:12;95387.09;;;8.64;100.00
33454;BME280;39400;49.744;7.012;2022-11-15T04:39:14;95389.84;;;8.64;100.00
33454;BME280;39400;49.744;7.012;2022-11-15T04:42:17;95388.28;;;8.59;100.00
33454;BME280;39400;49.744;7.012;2022-11-15T04:45:20;95383.59;;;8.60;100.00
33454;BME280;39400;49.744;7.012;2022-11-15T04:48:23;95383.19;;;8.50;100.00
33454;BME280;39400;49.744;7.012;2022-11-15T04:51:26;95375.78;;;8.40;100.00
33454;BME280;39400;49.744;7.012;2022-11-15T04:54:29;95386.75;;;8.40;100.00
33454;BME280;39400;49.744;7.012;2022-11-15T04:57:32;95381.22;;;8.37;100.00
33454;BME280;39400;49.744;7.012;2022-11-15T05:00:35;95393.78;;;8.41;100.00
33454;BME280;39400;49.744;7.012;2022-11-15T05:03:38;95387.50;;;8.44;100.00
33454;BME280;39400;49.744;7.012;2022-11-15T05:06:40;95399.25;;;8.41;100.00
33454;BME280;39400;49.744;7.012;2022-11-15T05:09:43;95393.38;;;8.46;100.00
33454;BME280;39400;49.744;7.012;2022-11-15T05:12:47;95408.66;;;8.47;100.00
33454;BME280;39400;49.744;7.012;2022-11-15T05:15:49;95398.47;;;8.44;100.00
33454;BME280;39400;49.744;7.012;2022-11-15T05:18:53;95392.22;;;8.44;100.00
33454;BME280;39400;49.744;7.012;2022-11-15T05:21:56;95405.50;;;8.38;100.00
33454;BME280;39400;49.744;7.012;2022-11-15T05:24:59;95400.81;;;8.35;100.00
33454;BME280;39400;49.744;7.012;2022-11-15T05:28:02;95404.72;;;8.30;100.00
33454;BME280;39400;49.744;7.012;2022-11-15T05:31:10;95406.69;;;8.23;100.00
33454;BME280;39400;49.744;7.012;2022-11-15T05:34:14;95395.34;;;8.24;100.00
33454;BME280;39400;49.744;7.012;2022-11-15T05:37:17;95398.88;;;8.25;100.00
33454;BME280;39400;49.744;7.012;2022-11-15T05:40:21;95385.53;;;8.16;100.00
33454;BME280;39400;49.744;7.012;2022-11-15T05:43:23;95397.69;;;8.15;100.00
33454;BME280;39400;49.744;7.012;2022-11-15T05:46:26;95402.38;;;8.22;100.00
33454;BME280;39400;49.744;7.012;2022-11-15T05:49:31;95404.34;;;8.18;100.00
33454;BME280;39400;49.744;7.012;2022-11-15T05:52:37;95394.16;;;8.15;100.00
33454;BME280;39400;49.744;7.012;2022-11-15T05:55:40;95388.69;;;8.11;100.00
33454;BME280;39400;49.744;7.012;2022-11-15T05:58:43;95396.91;;;8.07;100.00
33454;BME280;39400;49.744;7.012;2022-11-15T06:01:46;95388.28;;;8.02;100.00
33454;BME280;39400;49.744;7.012;2022-11-15T06:04:49;95393.75;;;8.05;100.00
33454;BME280;39400;49.744;7.012;2022-11-15T06:07:52;95390.63;;;7.96;100.00
33454;BME280;39400;49.744;7.012;2022-11-15T06:10:55;95400.00;;;7.95;100.00
33454;BME280;39400;49.744;7.012;2022-11-15T06:13:58;95397.28;;;7.99;100.00
33454;BME280;39400;49.744;7.012;2022-11-15T06:17:00;95386.72;;;7.97;100.00
33454;BME280;39400;49.744;7.012;2022-11-15T06:20:04;95385.97;;;8.00;100.00
33454;BME280;39400;49.744;7.012;2022-11-15T06:23:07;95386.72;;;7.97;100.00
33454;BME280;39400;49.744;7.012;2022-11-15T06:26:10;95397.69;;;7.97;100.00
33454;BME280;39400;49.744;7.012;2022-11-15T06:29:12;95401.56;;;7.96;100.00
33454;BME280;39400;49.744;7.012;2022-11-15T06:32:15;95400.78;;;8.06;100.00
33454;BME280;39400;49.744;7.012;2022-11-15T06:35:18;95399.25;;;8.05;100.00
33454;BME280;39400;49.744;7.012;2022-11-15T06:38:21;95396.50;;;7.91;100.00
33454;BME280;39400;49.744;7.012;2022-11-15T06:41:24;95394.16;;;8.00;100.00
33454;BME280;39400;49.744;7.012;2022-11-15T06:44:27;95393.75;;;7.91;100.00
33454;BME280;39400;49.744;7.012;2022-11-15T06:47:30;95401.97;;;7.91;100.00
33454;BME280;39400;49.744;7.012;2022-11-15T06:50:32;95408.63;;;7.97;100.00
33454;BME280;39400;49.744;7.012;2022-11-15T06:53:35;95410.59;;;7.93;100.00
33454;BME280;39400;49.744;7.012;2022-11-15T06:56:38;95410.97;;;7.99;100.00
33454;BME280;39400;49.744;7.012;2022-11-15T06:59:41;95419.59;;;7.97;100.00
33454;BME280;39400;49.744;7.012;2022-11-15T07:02:44;95420.38;;;7.98;100.00
33454;BME280;39400;49.744;7.012;2022-11-15T07:05:54;95418.41;;;7.95;100.00
33454;BME280;39400;49.744;7.012;2022-11-15T07:08:57;95422.69;;;7.96;100.00
33454;BME280;39400;49.744;7.012;2022-11-15T07:12:00;95419.97;;;7.99;100.00
33454;BME280;39400;49.744;7.012;2022-11-15T07:15:03;95418.81;;;7.93;100.00
33454;BME280;39400;49.744;7.012;2022-11-15T07:18:06;95427.03;;;8.00;100.00
33454;BME280;39400;49.744;7.012;2022-11-15T07:21:10;95425.06;;;8.01;100.00
33454;BME280;39400;49.744;7.012;2022-11-15T07:24:13;95421.53;;;8.07;100.00
33454;BME280;39400;49.744;7.012;2022-11-15T07:27:16;95416.44;;;7.95;100.00
33454;BME280;39400;49.744;7.012;2022-11-15T07:30:19;95419.59;;;7.97;100.00
33454;BME280;39400;49.744;7.012;2022-11-15T07:33:22;95417.63;;;8.08;100.00
33454;BME280;39400;49.744;7.012;2022-11-15T07:36:25;95427.41;;;8.09;100.00
33454;BME280;39400;49.744;7.012;2022-11-15T07:39:28;95418.81;;;8.15;100.00
33454;BME280;39400;49.744;7.012;2022-11-15T07:42:31;95423.50;;;8.10;100.00
33454;BME280;39400;49.744;7.012;2022-11-15T07:45:40;95427.41;;;8.09;100.00
33454;BME280;39400;49.744;7.012;2022-11-15T07:49:41;95421.53;;;8.07;100.00
33454;BME280;39400;49.744;7.012;2022-11-15T07:52:45;95422.69;;;8.10;100.00
33454;BME280;39400;49.744;7.012;2022-11-15T07:55:48;95410.97;;;8.34;100.00
33454;BME280;39400;49.744;7.012;2022-11-15T07:58:50;95396.13;;;8.21;100.00
33454;BME280;39400;49.744;7.012;2022-11-15T08:03:49;95405.91;;;8.19;100.00
33454;BME280;39400;49.744;7.012;2022-11-15T08:06:52;95404.34;;;8.18;100.00
33454;BME280;39400;49.744;7.012;2022-11-15T08:09:55;95407.09;;;8.18;100.00
33454;BME280;39400;49.744;7.012;2022-11-15T08:12:58;95414.50;;;8.21;100.00
33454;BME280;39400;49.744;7.012;2022-11-15T08:16:02;95402.78;;;8.38;100.00
33454;BME280;39400;49.744;7.012;2022-11-15T08:19:05;95398.88;;;8.43;100.00
33454;BME280;39400;49.744;7.012;2022-11-15T08:22:08;95408.63;;;8.51;100.00
33454;BME280;39400;49.744;7.012;2022-11-15T08:25:11;95402.38;;;8.50;100.00
33454;BME280;39400;49.744;7.012;2022-11-15T08:28:16;95396.88;;;8.57;100.00
33454;BME280;39400;49.744;7.012;2022-11-15T08:31:18;95385.91;;;8.65;100.00
33454;BME280;39400;49.744;7.012;2022-11-15T08:34:21;95377.72;;;8.57;100.00
33454;BME280;39400;49.744;7.012;2022-11-15T08:37:25;95376.91;;;8.64;100.00
33454;BME280;39400;49.744;7.012;2022-11-15T08:40:28;95378.06;;;8.74;100.00
33454;BME280;39400;49.744;7.012;2022-11-15T08:43:31;95376.09;;;8.78;100.00
33454;BME280;39400;49.744;7.012;2022-11-15T08:46:33;95372.16;;;8.82;100.00
33454;BME280;39400;49.744;7.012;2022-11-15T08:49:36;95368.59;;;8.96;100.00
33454;BME280;39400;49.744;7.012;2022-11-15T08:52:39;95365.47;;;8.98;100.00
33454;BME280;39400;49.744;7.012;2022-11-15T08:55:42;95363.88;;;9.00;100.00
33454;BME280;39400;49.744;7.012;2022-11-15T08:58:45;95370.13;;;9.08;100.00
33454;BME280;39400;49.744;7.012;2022-11-15T09:01:48;95370.03;;;9.26;100.00
33454;BME280;39400;49.744;7.012;2022-11-15T09:04:51;95366.88;;;9.31;100.00
33454;BME280;39400;49.744;7.012;2022-11-15T09:07:54;95373.91;;;9.39;100.00
33454;BME280;39400;49.744;7.012;2022-11-15T09:10:57;95372.75;;;9.33;100.00
33454;BME280;39400;49.744;7.012;2022-11-15T09:14:00;95363.69;;;9.43;100.00
33454;BME280;39400;49.744;7.012;2022-11-15T09:17:03;95365.94;;;9.59;100.00
33454;BME280;39400;49.744;7.012;2022-11-15T09:20:06;95361.97;;;9.71;100.00
33454;BME280;39400;49.744;7.012;2022-11-15T09:23:09;95358.00;;;9.75;100.00
33454;BME280;39400;49.744;7.012;2022-11-15T09:26:12;95344.59;;;9.85;100.00
33454;BME280;39400;49.744;7.012;2022-11-15T09:29:16;95335.94;;;9.86;100.00
33454;BME280;39400;49.744;7.012;2022-11-15T09:32:19;95342.97;;;9.94;100.00
33454;BME280;39400;49.744;7.012;2022-11-15T09:35:22;95337.53;;;9.87;100.00
33454;BME280;39400;49.744;7.012;2022-11-15T09:38:26;95330.47;;;9.86;100.00
33454;BME280;39400;49.744;7.012;2022-11-15T09:41:50;95325.66;;;9.97;100.00
33454;BME280;39400;49.744;7.012;2022-11-15T09:45:15;95321.56;;;10.20;100.00
33454;BME280;39400;49.744;7.012;2022-11-15T09:48:36;95316.72;;;10.35;100.00
33454;BME280;39400;49.744;7.012;2022-11-15T09:51:44;95310.56;;;10.20;100.00
33454;BME280;39400;49.744;7.012;2022-11-15T09:54:31;95302.88;;;10.00;100.00
33454;BME280;39400;49.744;7.012;2022-11-15T10:03:35;95299.31;;;10.04;100.00
33454;BME280;39400;49.744;7.012;2022-11-15T10:06:25;95295.69;;;10.14;100.00
33454;BME280;39400;49.744;7.012;2022-11-15T10:09:24;95301.88;;;10.25;100.00
33454;BME280;39400;49.744;7.012;2022-11-15T10:12:12;95293.06;;;10.44;100.00
33454;BME280;39400;49.744;7.012;2022-11-15T10:15:14;95286.59;;;10.62;100.00
33454;BME280;39400;49.744;7.012;2022-11-15T10:20:58;95283.66;;;10.42;100.00
33454;BME280;39400;49.744;7.012;2022-11-15T10:23:42;95278.13;;;10.45;100.00
33454;BME280;39400;49.744;7.012;2022-11-15T10:26:26;95275.78;;;10.47;100.00
33454;BME280;39400;49.744;7.012;2022-11-15T10:29:11;95278.91;;;10.50;100.00
33454;BME280;39400;49.744;7.012;2022-11-15T10:31:55;95275.13;;;10.36;100.00
33454;BME280;39400;49.744;7.012;2022-11-15T10:34:39;95271.66;;;10.63;100.00
33454;BME280;39400;49.744;7.012;2022-11-15T10:37:28;95262.59;;;10.66;100.00
33454;BME280;39400;49.744;7.012;2022-11-15T10:40:21;95243.09;;;10.57;100.00
33454;BME280;39400;49.744;7.012;2022-11-15T10:43:17;95248.88;;;10.97;100.00
33454;BME280;39400;49.744;7.012;2022-11-15T10:46:19;95228.78;;;11.00;100.00
33454;BME280;39400;49.744;7.012;2022-11-15T10:49:15;95229.56;;;11.27;100.00
33454;BME280;39400;49.744;7.012;2022-11-15T10:52:15;95217.84;;;11.23;100.00
33454;BME280;39400;49.744;7.012;2022-11-15T10:57:53;95233.91;;;10.98;100.00
33454;BME280;39400;49.744;7.012;2022-11-15T11:00:37;95209.06;;;11.32;100.00
33454;BME280;39400;49.744;7.012;2022-11-15T11:03:29;95210.91;;;11.38;100.00
33454;BME280;39400;49.744;7.012;2022-11-15T11:06:18;95200.50;;;11.50;100.00
33454;BME280;39400;49.744;7.012;2022-11-15T11:09:34;95198.72;;;11.63;100.00
33454;BME280;39400;49.744;7.012;2022-11-15T11:12:27;95196.75;;;11.40;100.00
33454;BME280;39400;49.744;7.012;2022-11-15T11:15:14;95202.31;;;11.36;100.00
33454;BME280;39400;49.744;7.012;2022-11-15T11:18:07;95193.50;;;11.45;100.00
33454;BME280;39400;49.744;7.012;2022-11-15T11:20:58;95191.78;;;11.55;100.00
33454;BME280;39400;49.744;7.012;2022-11-15T11:23:52;95183.28;;;11.69;100.00
33454;BME280;39400;49.744;7.012;2022-11-15T11:26:49;95188.19;;;11.58;100.00
33454;BME280;39400;49.744;7.012;2022-11-15T11:32:58;95180.13;;;11.47;100.00
33454;BME280;39400;49.744;7.012;2022-11-15T11:39:05;95160.66;;;11.81;100.00
33454;BME280;39400;49.744;7.012;2022-11-15T11:45:01;95161.28;;;11.93;100.00
33454;BME280;39400;49.744;7.012;2022-11-15T11:47:51;95150.31;;;11.89;100.00
33454;BME280;39400;49.744;7.012;2022-11-15T11:50:37;95155.22;;;12.21;100.00
33454;BME280;39400;49.744;7.012;2022-11-15T11:53:39;95153.09;;;13.38;100.00
33454;BME280;39400;49.744;7.012;2022-11-15T11:56:27;95138.03;;;12.90;100.00
33454;BME280;39400;49.744;7.012;2022-11-15T11:59:33;95135.22;;;12.37;100.00
33454;BME280;39400;49.744;7.012;2022-11-15T12:02:29;95131.94;;;12.62;100.00
33454;BME280;39400;49.744;7.012;2022-11-15T12:05:32;95129.63;;;12.41;100.00
33454;BME280;39400;49.744;7.012;2022-11-15T12:11:38;95111.66;;;13.05;100.00
33454;BME280;39400;49.744;7.012;2022-11-15T12:14:32;95109.00;;;12.65;100.00
33454;BME280;39400;49.744;7.012;2022-11-15T12:17:23;95108.78;;;14.87;100.00
33454;BME280;39400;49.744;7.012;2022-11-15T12:20:25;95095.50;;;15.07;100.00
33454;BME280;39400;49.744;7.012;2022-11-15T12:23:14;95090.69;;;15.46;100.00
33454;BME280;39400;49.744;7.012;2022-11-15T12:26:11;95086.97;;;15.75;100.00
33454;BME280;39400;49.744;7.012;2022-11-15T12:29:01;95081.91;;;16.17;100.00
33454;BME280;39400;49.744;7.012;2022-11-15T12:31:50;95079.22;;;14.58;100.00
33454;BME280;39400;49.744;7.012;2022-11-15T12:34:39;95084.19;;;13.79;100.00
33454;BME280;39400;49.744;7.012;2022-11-15T12:40:35;95071.47;;;13.04;100.00
33454;BME280;39400;49.744;7.012;2022-11-15T12:43:40;95066.38;;;13.80;100.00
33454;BME280;39400;49.744;7.012;2022-11-15T12:52:07;95051.13;;;18.65;91.94
33454;BME280;39400;49.744;7.012;2022-11-15T12:54:57;95051.34;;;19.61;84.78
33454;BME280;39400;49.744;7.012;2022-11-15T12:57:42;95046.41;;;15.20;100.00
33454;BME280;39400;49.744;7.012;2022-11-15T13:03:21;95039.72;;;13.12;100.00
33454;BME280;39400;49.744;7.012;2022-11-15T13:06:07;95037.75;;;12.96;100.00
33454;BME280;39400;49.744;7.012;2022-11-15T13:08:51;95028.50;;;13.94;100.00
33454;BME280;39400;49.744;7.012;2022-11-15T13:11:47;95021.75;;;13.37;100.00
33454;BME280;39400;49.744;7.012;2022-11-15T13:17:23;95018.16;;;12.91;100.00
33454;BME280;39400;49.744;7.012;2022-11-15T13:20:18;95012.91;;;13.29;100.00
33454;BME280;39400;49.744;7.012;2022-11-15T13:23:12;95012.94;;;14.00;100.00
33454;BME280;39400;49.744;7.012;2022-11-15T13:26:15;95012.00;;;13.77;100.00
33454;BME280;39400;49.744;7.012;2022-11-15T13:29:00;95005.53;;;13.97;100.00
33454;BME280;39400;49.744;7.012;2022-11-15T13:31:45;94993.41;;;13.65;100.00
33454;BME280;39400;49.744;7.012;2022-11-15T13:34:33;94982.28;;;13.07;100.00
33454;BME280;39400;49.744;7.012;2022-11-15T13:40:29;94972.94;;;12.72;100.00
33454;BME280;39400;49.744;7.012;2022-11-15T13:49:03;94955.53;;;12.75;100.00
33454;BME280;39400;49.744;7.012;2022-11-15T13:51:53;94953.88;;;12.45;100.00
33454;BME280;39400;49.744;7.012;2022-11-15T13:54:42;94945.84;;;12.67;100.00
33454;BME280;39400;49.744;7.012;2022-11-15T13:57:32;94935.06;;;12.40;100.00
33454;BME280;39400;49.744;7.012;2022-11-15T14:03:19;94927.75;;;12.49;100.00
33454;BME280;39400;49.744;7.012;2022-11-15T14:06:07;94919.16;;;12.47;100.00
33454;BME280;39400;49.744;7.012;2022-11-15T14:09:24;94924.59;;;12.51;100.00
33454;BME280;39400;49.744;7.012;2022-11-15T14:12:23;94918.53;;;12.07;100.00
33454;BME280;39400;49.744;7.012;2022-11-15T14:15:34;94912.97;;;12.27;100.00
33454;BME280;39400;49.744;7.012;2022-11-15T14:18:48;94906.97;;;11.96;100.00
33454;BME280;39400;49.744;7.012;2022-11-15T14:21:32;94905.69;;;11.80;100.00
33454;BME280;39400;49.744;7.012;2022-11-15T14:24:20;94916.59;;;11.87;100.00
33454;BME280;39400;49.744;7.012;2022-11-15T14:30:03;94894.38;;;11.95;100.00
33454;BME280;39400;49.744;7.012;2022-11-15T14:32:49;94889.25;;;12.13;100.00
33454;BME280;39400;49.744;7.012;2022-11-15T14:35:38;94881.88;;;12.26;100.00
33454;BME280;39400;49.744;7.012;2022-11-15T14:38:21;94876.66;;;12.12;100.00
33454;BME280;39400;49.744;7.012;2022-11-15T14:41:08;94880.13;;;12.00;100.00
33454;BME280;39400;49.744;7.012;2022-11-15T14:43:54;94873.06;;;11.99;100.00
33454;BME280;39400;49.744;7.012;2022-11-15T14:46:38;94871.00;;;12.19;100.00
33454;BME280;39400;49.744;7.012;2022-11-15T14:49:22;94866.00;;;11.98;100.00
33454;BME280;39400;49.744;7.012;2022-11-15T14:55:18;94853.44;;;11.97;100.00
33454;BME280;39400;49.744;7.012;2022-11-15T14:58:05;94856.84;;;11.84;100.00
33454;BME280;39400;49.744;7.012;2022-11-15T15:00:50;94853.03;;;11.78;100.00
33454;BME280;39400;49.744;7.012;2022-11-15T15:03:34;94848.88;;;11.70;100.00
33454;BME280;39400;49.744;7.012;2022-11-15T15:06:18;94847.63;;;11.75;100.00
33454;BME280;39400;49.744;7.012;2022-11-15T15:09:02;94845.00;;;11.51;100.00
33454;BME280;39400;49.744;7.012;2022-11-15T15:11:46;94836.28;;;11.53;100.00
33454;BME280;39400;49.744;7.012;2022-11-15T15:14:30;94835.44;;;11.56;100.00
33454;BME280;39400;49.744;7.012;2022-11-15T15:17:15;94837.28;;;11.42;100.00
33454;BME280;39400;49.744;7.012;2022-11-15T15:19:58;94836.34;;;11.33;100.00
33454;BME280;39400;49.744;7.012;2022-11-15T15:22:44;94837.69;;;11.25;100.00
33454;BME280;39400;49.744;7.012;2022-11-15T15:25:30;94840.31;;;11.12;100.00
33454;BME280;39400;49.744;7.012;2022-11-15T15:28:15;94841.78;;;11.16;100.00
33454;BME280;39400;49.744;7.012;2022-11-15T15:30:59;94825.34;;;11.13;100.00
33454;BME280;39400;49.744;7.012;2022-11-15T15:33:43;94837.00;;;11.01;100.00
33454;BME280;39400;49.744;7.012;2022-11-15T15:36:26;94831.72;;;11.10;100.00
33454;BME280;39400;49.744;7.012;2022-11-15T15:39:10;94828.44;;;11.15;100.00
33454;BME280;39400;49.744;7.012;2022-11-15T15:41:54;94829.44;;;11.05;100.00
33454;BME280;39400;49.744;7.012;2022-11-15T15:44:38;94809.22;;;10.95;100.00
33454;BME280;39400;49.744;7.012;2022-11-15T15:47:23;94810.16;;;10.88;100.00
33454;BME280;39400;49.744;7.012;2022-11-15T15:52:59;94818.03;;;10.86;100.00
33454;BME280;39400;49.744;7.012;2022-11-15T15:55:44;94806.47;;;10.95;100.00
33454;BME280;39400;49.744;7.012;2022-11-15T15:58:28;94809.72;;;10.90;100.00
33454;BME280;39400;49.744;7.012;2022-11-15T16:01:11;94797.94;;;10.89;100.00
33454;BME280;39400;49.744;7.012;2022-11-15T16:03:55;94800.19;;;10.94;100.00
33454;BME280;39400;49.744;7.012;2022-11-15T16:06:40;94799.13;;;10.88;100.00
33454;BME280;39400;49.744;7.012;2022-11-15T16:09:24;94795.88;;;10.93;100.00
33454;BME280;39400;49.744;7.012;2022-11-15T16:12:08;94798.00;;;10.86;100.00
33454;BME280;39400;49.744;7.012;2022-11-15T16:14:52;94799.13;;;10.88;100.00
33454;BME280;39400;49.744;7.012;2022-11-15T16:17:44;94801.03;;;10.91;100.00
33454;BME280;39400;49.744;7.012;2022-11-15T16:23:18;94800.97;;;10.75;100.00
33454;BME280;39400;49.744;7.012;2022-11-15T16:26:14;94795.63;;;10.68;100.00
33454;BME280;39400;49.744;7.012;2022-11-15T16:29:01;94791.38;;;10.63;100.00
33454;BME280;39400;49.744;7.012;2022-11-15T16:31:45;94810.28;;;10.81;100.00
33454;BME280;39400;49.744;7.012;2022-11-15T16:34:29;94813.88;;;10.78;100.00
33454;BME280;39400;49.744;7.012;2022-11-15T16:37:23;94804.50;;;10.76;100.00
33454;BME280;39400;49.744;7.012;2022-11-15T16:40:17;94802.03;;;10.81;100.00
33454;BME280;39400;49.744;7.012;2022-11-15T16:43:03;94808.22;;;10.85;100.00
33454;BME280;39400;49.744;7.012;2022-11-15T16:45:49;94807.88;;;10.83;100.00
33454;BME280;39400;49.744;7.012;2022-11-15T16:48:33;94796.31;;;10.72;100.00
33454;BME280;39400;49.744;7.012;2022-11-15T16:51:17;94800.19;;;10.75;100.00
33454;BME280;39400;49.744;7.012;2022-11-15T16:54:01;94797.16;;;10.69;100.00
33454;BME280;39400;49.744;7.012;2022-11-15T16:56:45;94800.28;;;10.71;100.00
33454;BME280;39400;49.744;7.012;2022-11-15T16:59:29;94795.63;;;10.68;100.00
33454;BME280;39400;49.744;7.012;2022-11-15T17:02:13;94776.91;;;10.59;100.00
33454;BME280;39400;49.744;7.012;2022-11-15T17:04:57;94785.31;;;10.72;100.00
33454;BME280;39400;49.744;7.012;2022-11-15T17:07:41;94783.06;;;10.67;100.00